Logan Cache Airport
KLGU : now visible

Airfield :











YOU CAN JOIN US ON...

 
LOGIN :

Register | Disclaimer

   EN    FR    IT 

 









Legend :    VFR   Marginal VFR   IFR   Intensive IFR   Very Intensive IFR
Visi :
Ceiling :
>= 8 km
>= 3000ft
5 to 8 km
1000 to 3000 ft
1500m to 5 km
500 to 1000 ft
800 to 1500m
200 to 500 ft
< 800m
< 200 ft
Symbols :   Thunderstorms  Fog  Heavy snow  Heavy precipitations  Wind > 20 kt







- Airport Elevation : 4457 ft


KLGU - Logan Cache

CURRENT METAR :
  • 222351Z AUTO 36010KT 10SM CLR 29/07 A2984 RMK AO2 SLP058 T02890067 10300 20244 56009

EXPIRED METARs :
  • 222251Z AUTO 36004KT 10SM CLR 29/04 A2985 RMK AO2 SLP057 T02940039

TAF KLGU
Valid from the 23 at 00:00 until the 24 at 00:00 UTC


222333Z 2300/2324 34010KT P6SM SCT150
FM230600 VRB04KT P6SM SKC
No reported NOTAMs for that airfield.



MET'MAP, your aeronautical weather chart ! - Copyright ORBIFLY December 2007 - Disclaimer

ORBIFLY MET'MAP TEAM :

Programming & Development : Alexandra Zaïnal
Concept & Development : Baudouin d'Aumeries
Co-Development & Prog : Marc-Olivier Méhu
Technical & hardware support : Manuel Goepfert

Contact : metmap@orbifly.com




SOURCES & CREDITS :

   NOAA       Earth
Advisory